首页
METAR-TAF:

METAR-TAF

机场 :

Woodward, 奧克拉荷馬州, 美国

纬度: 36-26-12N, 经度: 099-31-16W, 海拔: 667米

当前天气观测

该预报发布于36分钟前的17:30 UTC
风速19节,风向,有时为23节阵风
温度 31°C
湿度 43%
气压 1014 hPa
能見度: 16.1公里
天空无云

METAR: KWWR 151730Z AUTO 19019G23KT 10SM CLR 31/17 A2994 RMK AO2

时间: 13:06 (18:06 UTC)

预报

该预报发布于43分钟前的17:23 UTC
预报有效从15日的 18点(UTC)到 16日的 18点(UTC)
风速14节,风向,有时为24节阵风
能見度: 10公里
多云层高于10000英尺, 积雨云.
多云层高于25000英尺
附近有雷暴
从 15日的 2300点(UTC)
风速14节,风向南转南东
能見度: 10公里
散云层高于8000英尺, 积雨云.
多云层高于15000英尺
附近有雷暴
短暂存在
从 16日的 00点(UTC)到 16日的 04点(UTC)
能見度: 6.4公里
多云层高于5000英尺, 积雨云.
雷暴, 雨
从 16日的 0600点(UTC)
风速15节,风向
能見度: 10公里
多云层高于10000英尺
从 16日的 1300点(UTC)
风速16节,风向,有时为24节阵风
能見度: 10公里
散云层高于10000英尺
多云层高于25000英尺

TAF: KWWR 151723Z 1518/1618 19014G24KT P6SM VCTS BKN100CB BKN250 FM152300 16014KT P6SM VCTS SCT080CB BKN150 TEMPO 1600/1604 4SM TSRA BKN050CB FM160600 18015KT P6SM BKN100 FM161300 19016G24KT P6SM SCT100 BKN250

超过4000个机场的气象观测和天气预报(METAR&TAF报告)。

可查询的气象台以黄色和红色小点在地图上表示。

将鼠标移到小点上方,可查看气象台名称。

然后点击查看天气观测和预报。

如需切换地图:点击带黑十字的绿色按钮放大地图;点击带横线的绿色按钮缩小地图;或者点击绿色箭头查看邻近地区的地图。


METAR-TAF: